Time;durP1;ratioP1;P1;durP2;ratioP2;P2;SDS_P1;SDS_P2;PMS_P1;PMS_P2;Temp;Humidity;BMP_temperature;BMP_pressure;BME280_temperature;BME280_humidity;BME280_pressure;Samples;Min_cycle;Max_cycle;Signal;HPM_P1;HPM_P2
2023/08/20 06:24:46;;;;;;;;;;;;;;;24.00;76.86;100248.06;1085853;54;19938;-87
2023/08/20 06:25:50;;;;;;;;;;;;;;;24.05;77.16;100256.41;1087664;47;19934;-87
2023/08/20 06:26:55;;;;;;;;;;;;;;;24.10;76.50;100248.34;1089673;39;20571;-86
2023/08/20 06:27:56;;;;;;;;;;;;;;;24.14;76.35;100257.75;1087725;47;19938;-87
2023/08/20 06:29:01;;;;;;;;;;;;;;;24.19;76.46;100250.75;1087834;46;19977;-88
2023/08/20 06:53:00;;;;;;;;;;;;;;;24.61;74.28;100253.56;1087018;47;20902;-86
2023/08/20 06:54:02;;;;;;;;;;;;;;;24.60;74.15;100252.75;1087461;47;20084;-85
2023/08/20 06:55:05;;;;;;;;;;;;;;;24.67;74.06;100252.63;1090310;39;20547;-88
2023/08/20 07:06:04;;;;;;;;;;;;;;;24.95;73.00;100248.41;1088587;54;19935;-87
2023/08/20 07:07:05;;;;;;;;;;;;;;;24.94;72.91;100249.50;1087674;46;19970;-88
2023/08/20 07:08:11;;;;;;;;;;;;;;;24.83;73.21;100255.78;1092322;39;20625;-87
2023/08/20 07:11:35;;;;;;;;;;;;;;;24.88;73.26;100247.72;1087694;47;19939;-88
2023/08/20 07:13:44;;;;;;;;;;;;;;;24.89;73.02;100243.91;1087688;54;20015;-88
2023/08/20 07:14:45;;;;;;;;;;;;;;;25.05;72.51;100248.69;1087567;47;19939;-89
2023/08/20 07:15:46;;;;;;;;;;;;;;;25.13;72.42;100255.72;1087610;54;19973;-88
2023/08/20 07:16:49;;;;;;;;;;;;;;;25.25;71.98;100257.63;1087551;47;20036;-88
2023/08/20 07:17:50;;;;;;;;;;;;;;;25.32;71.66;100252.88;1087683;54;19949;-88
2023/08/20 07:18:53;;;;;;;;;;;;;;;25.41;71.35;100261.59;1087419;47;19951;-89
2023/08/20 07:19:55;;;;;;;;;;;;;;;25.49;70.73;100262.03;1087571;46;19990;-90
2023/08/20 07:20:59;;;;;;;;;;;;;;;25.54;70.79;100267.66;1088009;46;19978;-88
2023/08/20 07:27:10;;;;;;;;;;;;;;;25.90;69.67;100280.44;1088208;54;19942;-86
2023/08/20 07:28:26;;;;;;;;;;;;;;;26.08;69.10;100276.69;1087431;47;19930;-87
2023/08/20 07:29:40;;;;;;;;;;;;;;;26.23;68.79;100279.81;1091484;39;20032;-86
2023/08/20 07:30:42;;;;;;;;;;;;;;;26.27;68.31;100278.22;1087817;47;19938;-89
2023/08/20 07:31:45;;;;;;;;;;;;;;;26.22;68.17;100277.28;1087841;46;19947;-88
2023/08/20 07:35:07;;;;;;;;;;;;;;;26.30;67.57;100272.25;1087529;47;19951;-84
2023/08/20 07:36:09;;;;;;;;;;;;;;;26.38;66.98;100271.06;1087473;47;19950;-87
2023/08/20 07:37:13;;;;;;;;;;;;;;;26.39;66.89;100278.19;1087905;46;19971;-86
2023/08/20 07:38:14;;;;;;;;;;;;;;;26.39;67.45;100280.94;1087604;47;19968;-86
2023/08/20 07:39:17;;;;;;;;;;;;;;;26.34;67.15;100280.81;1087740;47;19927;-88
2023/08/20 07:41:29;;;;;;;;;;;;;;;26.28;67.15;100285.38;1087806;54;19942;-87
2023/08/20 07:42:33;;;;;;;;;;;;;;;26.35;67.09;100278.94;1086894;47;20007;-84
2023/08/20 07:43:36;;;;;;;;;;;;;;;26.26;67.60;100273.81;1087461;47;19943;-85
2023/08/20 07:44:37;;;;;;;;;;;;;;;26.05;67.64;100278.03;1087474;47;19945;-88
2023/08/20 07:45:41;;;;;;;;;;;;;;;25.85;68.35;100283.91;1087845;54;19942;-86
2023/08/20 07:46:41;;;;;;;;;;;;;;;25.73;68.90;100280.34;1087622;47;19943;-86
2023/08/20 07:47:45;;;;;;;;;;;;;;;25.72;68.90;100289.63;1087593;47;19963;-87
2023/08/20 07:48:46;;;;;;;;;;;;;;;25.59;69.46;100279.78;1087455;54;19950;-87
2023/08/20 07:49:49;;;;;;;;;;;;;;;25.66;69.64;100292.25;1087378;47;19939;-85
2023/08/20 07:50:51;;;;;;;;;;;;;;;25.72;69.19;100289.63;1087592;47;19967;-88
2023/08/20 07:51:55;;;;;;;;;;;;;;;25.70;69.27;100282.47;1087932;47;19927;-91
2023/08/20 07:55:16;;;;;;;;;;;;;;;26.43;66.92;100278.53;1088001;54;19954;-91
2023/08/20 07:56:17;;;;;;;;;;;;;;;26.63;66.50;100278.94;1087861;47;21201;-88
2023/08/20 07:57:25;;;;;;;;;;;;;;;26.73;65.88;100280.19;1087638;47;19943;-86
2023/08/20 07:58:31;;;;;;;;;;;;;;;26.81;65.60;100285.28;1087504;47;19967;-84
2023/08/20 08:02:04;;;;;;;;;;;;;;;27.01;65.09;100284.00;1087371;54;20900;-84
2023/08/20 08:03:04;;;;;;;;;;;;;;;26.89;65.35;100281.28;1086477;47;19969;-85
2023/08/20 08:04:08;;;;;;;;;;;;;;;26.66;66.17;100287.72;1086859;54;19949;-84
2023/08/20 08:05:09;;;;;;;;;;;;;;;26.75;66.20;100281.59;1087583;47;19969;-87
2023/08/20 08:06:27;;;;;;;;;;;;;;;26.87;65.74;100280.75;1087417;47;19935;-87
2023/08/20 08:07:31;;;;;;;;;;;;;;;26.92;65.21;100287.13;1087615;54;19950;-88
2023/08/20 08:08:37;;;;;;;;;;;;;;;27.03;65.07;100288.13;1087589;47;20050;-88
2023/08/20 08:10:47;;;;;;;;;;;;;;;27.11;64.73;100289.66;1087993;54;20682;-89
2023/08/20 08:11:48;;;;;;;;;;;;;;;27.18;64.60;100287.56;1087667;47;19939;-89
2023/08/20 08:12:51;;;;;;;;;;;;;;;27.23;64.38;100293.13;1087765;47;19949;-86
2023/08/20 08:15:58;;;;;;;;;;;;;;;27.39;64.41;100274.97;1087017;47;19938;-85
2023/08/20 08:17:08;;;;;;;;;;;;;;;27.57;63.80;100284.06;1086991;47;19939;-87
2023/08/20 08:18:17;;;;;;;;;;;;;;;27.69;63.00;100284.78;1086986;47;19946;-87
2023/08/20 08:19:20;;;;;;;;;;;;;;;27.77;63.11;100282.69;1087335;47;19943;-87
2023/08/20 08:20:23;;;;;;;;;;;;;;;27.84;62.48;100278.66;1086837;47;19939;-86
2023/08/20 08:21:24;;;;;;;;;;;;;;;27.98;62.29;100275.53;1086585;47;20691;-89
2023/08/20 08:22:28;;;;;;;;;;;;;;;28.02;62.25;100273.94;1086430;47;19950;-87
2023/08/20 08:23:28;;;;;;;;;;;;;;;28.33;61.19;100274.34;1086642;54;19942;-88
2023/08/20 08:24:32;;;;;;;;;;;;;;;28.37;60.87;100277.41;1086800;47;19945;-88
2023/08/20 08:25:33;;;;;;;;;;;;;;;28.54;60.96;100269.88;1086874;47;19939;-86
2023/08/20 08:26:37;;;;;;;;;;;;;;;28.69;59.97;100265.59;1086738;47;19938;-87
2023/08/20 08:27:38;;;;;;;;;;;;;;;28.84;59.53;100270.47;1086596;54;19969;-86
2023/08/20 08:28:41;;;;;;;;;;;;;;;29.01;59.69;100262.91;1086856;47;19947;-86
2023/08/20 08:29:44;;;;;;;;;;;;;;;29.08;59.51;100277.28;1086997;54;19943;-87
2023/08/20 08:30:47;;;;;;;;;;;;;;;29.16;59.18;100278.69;1086804;47;19938;-85
2023/08/20 08:31:51;;;;;;;;;;;;;;;29.14;58.69;100280.06;1086669;47;19946;-86
2023/08/20 08:32:54;;;;;;;;;;;;;;;29.07;58.70;100275.63;1086807;47;20041;-87
2023/08/20 08:33:55;;;;;;;;;;;;;;;29.28;57.32;100278.53;1086798;47;19938;-87
2023/08/20 08:34:56;;;;;;;;;;;;;;;29.34;57.79;100268.38;1086828;47;19945;-87
2023/08/20 08:35:59;;;;;;;;;;;;;;;29.31;57.36;100269.72;1086708;54;19942;-86
2023/08/20 08:37:00;;;;;;;;;;;;;;;29.30;57.42;100270.00;1086705;39;21026;-88
2023/08/20 08:38:04;;;;;;;;;;;;;;;29.41;57.34;100274.53;1086628;47;19991;-88
2023/08/20 08:39:06;;;;;;;;;;;;;;;29.54;57.15;100270.47;1086629;47;19966;-86
2023/08/20 08:40:11;;;;;;;;;;;;;;;29.42;56.54;100265.97;1086614;47;19982;-87
2023/08/20 08:41:12;;;;;;;;;;;;;;;29.15;56.92;100274.28;1087010;39;21134;-88
2023/08/20 08:42:17;;;;;;;;;;;;;;;29.36;57.05;100272.56;1086828;47;19966;-88
2023/08/20 08:43:18;;;;;;;;;;;;;;;29.54;56.84;100271.28;1086452;47;19938;-86
2023/08/20 08:44:21;;;;;;;;;;;;;;;29.75;56.27;100278.84;1086554;54;19950;-86
2023/08/20 08:45:23;;;;;;;;;;;;;;;30.01;55.04;100272.38;1086596;54;21093;-86
2023/08/20 08:46:26;;;;;;;;;;;;;;;30.16;54.88;100271.63;1086453;47;20026;-86
2023/08/20 08:47:30;;;;;;;;;;;;;;;30.35;54.20;100271.13;1086473;47;20794;-88
2023/08/20 08:48:33;;;;;;;;;;;;;;;30.55;54.33;100272.28;1086562;47;19954;-87
2023/08/20 08:54:26;;;;;;;;;;;;;;;30.73;52.71;100270.91;1084937;54;20809;-86
2023/08/20 08:55:28;;;;;;;;;;;;;;;30.96;51.47;100264.88;1086866;47;19938;-87
2023/08/20 08:56:31;;;;;;;;;;;;;;;30.58;51.96;100269.81;1086636;47;19939;-88
2023/08/20 08:57:32;;;;;;;;;;;;;;;30.32;52.84;100266.94;1086688;54;21047;-87
2023/08/20 08:58:36;;;;;;;;;;;;;;;30.19;52.71;100273.00;1086640;47;19945;-87
2023/08/20 08:59:36;;;;;;;;;;;;;;;30.65;51.87;100270.38;1086763;47;20872;-84
2023/08/20 09:00:40;;;;;;;;;;;;;;;30.16;52.43;100273.53;1086600;47;20107;-84
2023/08/20 09:01:40;;;;;;;;;;;;;;;30.34;52.50;100270.28;1086691;54;19985;-87
2023/08/20 09:02:46;;;;;;;;;;;;;;;30.66;52.13;100268.44;1087156;54;19943;-87
2023/08/20 09:03:47;;;;;;;;;;;;;;;30.85;51.80;100268.72;1086994;47;20836;-87
2023/08/20 09:04:48;;;;;;;;;;;;;;;31.04;51.63;100269.00;1089618;39;20795;-87
2023/08/20 09:05:52;;;;;;;;;;;;;;;31.20;51.02;100261.56;1087246;54;19943;-88
2023/08/20 09:06:55;;;;;;;;;;;;;;;31.38;50.84;100273.97;1087276;46;19963;-86
2023/08/20 09:08:00;;;;;;;;;;;;;;;31.39;50.38;100266.50;1087631;54;19964;-87
2023/08/20 09:12:59;;;;;;;;;;;;;;;31.35;49.33;100265.44;1087692;54;20874;-86
2023/08/20 09:14:00;;;;;;;;;;;;;;;30.93;50.39;100259.91;1086769;47;19938;-90
2023/08/20 09:15:01;;;;;;;;;;;;;;;30.98;50.72;100261.81;1087392;39;20177;-87
2023/08/20 09:16:06;;;;;;;;;;;;;;;31.00;50.35;100264.31;1086996;47;20038;-86
2023/08/20 09:17:07;;;;;;;;;;;;;;;30.96;50.92;100262.13;1087370;54;20348;-85
2023/08/20 09:18:12;;;;;;;;;;;;;;;31.12;50.07;100256.59;1087376;47;19938;-87
2023/08/20 09:19:15;;;;;;;;;;;;;;;31.16;50.04;100256.88;1087217;47;19982;-86
2023/08/20 09:20:16;;;;;;;;;;;;;;;31.25;50.16;100260.72;1087172;46;19951;-86
2023/08/20 09:21:19;;;;;;;;;;;;;;;31.27;49.95;100266.81;1087217;47;19945;-86
2023/08/20 09:22:35;;;;;;;;;;;;;;;31.09;49.45;100254.38;1087292;47;19938;-87
2023/08/20 09:23:40;;;;;;;;;;;;;;;30.81;49.77;100262.09;1087009;47;19939;-86
2023/08/20 09:24:42;;;;;;;;;;;;;;;31.02;49.66;100271.22;1087135;47;19939;-85
2023/08/20 09:25:46;;;;;;;;;;;;;;;31.33;49.17;100262.09;1087248;54;19948;-86
2023/08/20 09:26:47;;;;;;;;;;;;;;;31.54;48.79;100255.44;1088028;39;20285;-85
2023/08/20 09:27:50;;;;;;;;;;;;;;;31.24;49.31;100265.44;1087338;54;19999;-86
2023/08/20 09:28:51;;;;;;;;;;;;;;;31.25;49.42;100257.97;1087156;47;19972;-85
2023/08/20 09:29:54;;;;;;;;;;;;;;;31.43;48.88;100262.91;1087234;54;19942;-86
2023/08/20 09:30:56;;;;;;;;;;;;;;;31.35;48.55;100271.75;1087269;47;19939;-85
2023/08/20 09:32:03;;;;;;;;;;;;;;;31.53;48.99;100255.69;1087547;54;19942;-86
2023/08/20 09:33:04;;;;;;;;;;;;;;;31.71;48.50;100257.06;1087253;51;19967;-84
2023/08/20 09:34:15;;;;;;;;;;;;;;;31.88;48.30;100251.22;1087272;39;20221;-85
2023/08/20 09:35:18;;;;;;;;;;;;;;;31.88;47.79;100252.03;1087527;47;19939;-86
2023/08/20 09:36:32;;;;;;;;;;;;;;;31.69;47.89;100256.53;1087398;47;19962;-84
2023/08/20 09:37:33;;;;;;;;;;;;;;;31.78;47.74;100254.81;1087256;54;19943;-86
2023/08/20 09:38:39;;;;;;;;;;;;;;;31.86;47.78;100250.66;1087268;46;19923;-84
2023/08/20 09:39:40;;;;;;;;;;;;;;;31.77;47.78;100244.88;1087234;54;19950;-86
2023/08/20 09:40:44;;;;;;;;;;;;;;;31.52;48.04;100248.53;1087772;39;20135;-86
2023/08/20 09:41:47;;;;;;;;;;;;;;;31.35;48.45;100251.63;1087481;54;19942;-85
2023/08/20 09:42:52;;;;;;;;;;;;;;;31.73;47.40;100252.91;1087480;47;19939;-87
2023/08/20 09:43:56;;;;;;;;;;;;;;;31.96;47.41;100247.84;1086583;47;19938;-86
2023/08/20 09:45:02;;;;;;;;;;;;;;;32.18;47.14;100257.69;1087135;54;19949;-84
2023/08/20 09:46:04;;;;;;;;;;;;;;;32.36;46.51;100250.72;1089237;39;20265;-87
2023/08/20 09:47:09;;;;;;;;;;;;;;;32.06;46.94;100252.50;1087071;54;19954;-85
2023/08/20 09:48:11;;;;;;;;;;;;;;;31.90;46.90;100254.50;1086969;54;19946;-85
2023/08/20 09:49:20;;;;;;;;;;;;;;;31.73;47.50;100244.63;1086697;47;19969;-83
2023/08/20 09:50:22;;;;;;;;;;;;;;;31.35;48.21;100254.38;1086788;54;20074;-87
2023/08/20 09:51:27;;;;;;;;;;;;;;;31.56;48.32;100255.16;1086997;54;19949;-85
2023/08/20 09:52:31;;;;;;;;;;;;;;;31.82;47.60;100255.94;1086922;47;20002;-85
2023/08/20 09:53:37;;;;;;;;;;;;;;;31.88;46.92;100245.69;1086907;47;19939;-85
2023/08/20 09:54:44;;;;;;;;;;;;;;;31.81;46.95;100261.72;1086962;46;19963;-84
2023/08/20 09:55:49;;;;;;;;;;;;;;;32.08;46.80;100253.03;1087018;54;19942;-85
2023/08/20 09:56:54;;;;;;;;;;;;;;;32.16;46.59;100255.22;1087018;47;20043;-84
2023/08/20 09:57:57;;;;;;;;;;;;;;;32.33;46.16;100248.50;1086873;47;20009;-85
2023/08/20 09:58:58;;;;;;;;;;;;;;;32.56;45.36;100244.19;1086914;47;20495;-85
2023/08/20 09:59:59;;;;;;;;;;;;;;;32.44;45.75;100249.28;1086949;47;19947;-84
2023/08/20 10:01:03;;;;;;;;;;;;;;;32.46;45.40;100247.88;1087057;47;19938;-85
2023/08/20 10:02:04;;;;;;;;;;;;;;;32.49;45.69;100250.06;1086935;46;19938;-85
2023/08/20 10:03:08;;;;;;;;;;;;;;;32.75;45.15;100241.56;1086876;54;20027;-85
2023/08/20 10:04:10;;;;;;;;;;;;;;;32.74;45.16;100241.84;1086873;46;19963;-84
2023/08/20 10:05:16;;;;;;;;;;;;;;;32.89;44.82;100246.47;1086935;47;19972;-84
2023/08/20 10:06:17;;;;;;;;;;;;;;;33.13;44.42;100241.81;1086898;54;19943;-85
2023/08/20 10:07:18;;;;;;;;;;;;;;;33.08;44.59;100250.16;1086906;47;19938;-87
2023/08/20 10:08:21;;;;;;;;;;;;;;;33.28;44.29;100242.78;1086997;54;20002;-85
2023/08/20 10:09:22;;;;;;;;;;;;;;;33.27;43.87;100252.19;1086917;47;19938;-84
2023/08/20 10:10:27;;;;;;;;;;;;;;;32.91;44.32;100252.53;1086808;54;19968;-86
2023/08/20 10:11:38;;;;;;;;;;;;;;;32.96;44.57;100252.50;1087038;54;20043;-86
2023/08/20 10:12:45;;;;;;;;;;;;;;;33.21;43.99;100247.84;1086937;47;19950;-86
2023/08/20 10:13:46;;;;;;;;;;;;;;;33.43;43.49;100250.13;1086728;47;19938;-84
2023/08/20 10:14:49;;;;;;;;;;;;;;;33.48;43.56;100254.78;1086428;47;19990;-84
2023/08/20 10:15:50;;;;;;;;;;;;;;;33.42;43.09;100256.78;1087010;54;19955;-84
2023/08/20 10:16:55;;;;;;;;;;;;;;;33.26;44.00;100256.94;1087017;47;19939;-85
2023/08/20 10:17:57;;;;;;;;;;;;;;;33.62;43.16;100254.91;1086922;54;19946;-84
2023/08/20 10:19:04;;;;;;;;;;;;;;;33.68;42.83;100250.94;1086945;54;19942;-84
2023/08/20 10:20:07;;;;;;;;;;;;;;;33.92;42.74;100259.28;1086901;47;19963;-85
2023/08/20 10:21:13;;;;;;;;;;;;;;;34.09;42.34;100246.88;1086906;46;19968;-87
2023/08/20 10:22:14;;;;;;;;;;;;;;;34.18;42.08;100245.91;1086942;54;19968;-84
2023/08/20 10:23:17;;;;;;;;;;;;;;;34.17;41.73;100247.03;1086900;54;20975;-84
2023/08/20 10:24:18;;;;;;;;;;;;;;;34.02;42.24;100244.47;1086752;47;19939;-84
2023/08/20 10:25:25;;;;;;;;;;;;;;;34.29;42.24;100242.97;1086910;47;19946;-86
2023/08/20 10:26:26;;;;;;;;;;;;;;;34.22;42.11;100252.50;1087066;47;19972;-86
2023/08/20 10:27:31;;;;;;;;;;;;;;;33.88;41.85;100253.50;1087010;47;19939;-85
2023/08/20 10:28:34;;;;;;;;;;;;;;;34.03;41.84;100248.91;1086779;47;21197;-86
2023/08/20 10:29:39;;;;;;;;;;;;;;;34.27;41.58;100245.22;1087098;54;20675;-84
2023/08/20 10:30:59;;;;;;;;;;;;;;;34.49;41.39;100247.41;1086980;54;20005;-84
2023/08/20 10:32:03;;;;;;;;;;;;;;;34.42;41.05;100249.75;1086978;54;19950;-85
2023/08/20 10:33:04;;;;;;;;;;;;;;;34.55;40.75;100262.03;1086948;47;20018;-86
2023/08/20 10:34:07;;;;;;;;;;;;;;;34.63;40.39;100245.56;1086975;47;19945;-85
2023/08/20 10:35:08;;;;;;;;;;;;;;;34.87;40.38;100246.56;1087008;54;19942;-86
2023/08/20 10:36:17;;;;;;;;;;;;;;;34.67;40.01;100243.81;1088799;39;20875;-86
2023/08/20 10:37:28;;;;;;;;;;;;;;;34.89;39.97;100250.66;1087104;54;19927;-84
2023/08/20 10:38:37;;;;;;;;;;;;;;;34.75;39.53;100244.25;1086940;47;20011;-85
2023/08/20 10:39:38;;;;;;;;;;;;;;;34.65;40.02;100237.75;1087104;47;19938;-85
2023/08/20 10:40:52;;;;;;;;;;;;;;;34.40;40.08;100238.13;1087418;46;19985;-85
2023/08/20 10:42:10;;;;;;;;;;;;;;;34.25;40.97;100245.53;1087269;46;19946;-84
2023/08/20 10:43:23;;;;;;;;;;;;;;;33.95;41.50;100242.06;1087116;47;19923;-85
2023/08/20 10:44:26;;;;;;;;;;;;;;;33.83;41.43;100244.41;1086874;47;20002;-84
2023/08/20 10:45:27;;;;;;;;;;;;;;;33.97;41.64;100242.59;1086783;47;21686;-84
2023/08/20 10:46:31;;;;;;;;;;;;;;;34.07;41.19;100241.63;1086952;47;19945;-84
2023/08/20 10:47:36;;;;;;;;;;;;;;;34.32;40.70;100236.84;1086966;46;19939;-84
2023/08/20 10:48:38;;;;;;;;;;;;;;;34.34;40.58;100237.34;1086767;47;19963;-85
2023/08/20 10:49:48;;;;;;;;;;;;;;;34.13;40.89;100239.59;1086918;47;19943;-86
2023/08/20 10:50:52;;;;;;;;;;;;;;;34.26;40.75;100249.97;1086866;47;20053;-86
2023/08/20 10:51:58;;;;;;;;;;;;;;;34.28;40.92;100236.63;1087113;47;19946;-85
2023/08/20 10:52:59;;;;;;;;;;;;;;;34.32;40.26;100234.88;1086986;54;19950;-83
2023/08/20 10:54:07;;;;;;;;;;;;;;;33.90;41.28;100240.19;1086970;47;19965;-86
2023/08/20 10:55:08;;;;;;;;;;;;;;;33.80;41.44;100239.47;1086900;54;19954;-86
2023/08/20 10:56:16;;;;;;;;;;;;;;;33.96;41.14;100238.16;1089551;39;20770;-84
2023/08/20 10:57:21;;;;;;;;;;;;;;;33.80;41.07;100239.47;1086928;47;20020;-85
2023/08/20 10:58:23;;;;;;;;;;;;;;;33.89;41.42;100238.53;1086885;47;19969;-86
2023/08/20 11:01:30;;;;;;;;;;;;;;;33.25;42.04;100244.19;1086940;54;19942;-85
2023/08/20 11:02:31;;;;;;;;;;;;;;;33.50;41.61;100235.94;1086935;46;19995;-84
2023/08/20 11:03:34;;;;;;;;;;;;;;;33.49;41.81;100231.50;1086760;47;19939;-87
2023/08/20 11:07:13;;;;;;;;;;;;;;;33.20;42.17;100232.34;1087413;54;20034;-87
2023/08/20 11:11:04;;;;;;;;;;;;;;;32.97;42.37;100227.28;1087680;54;19938;-89
2023/08/20 11:12:05;;;;;;;;;;;;;;;33.06;42.36;100224.75;1087449;54;19931;-88
2023/08/20 11:13:10;;;;;;;;;;;;;;;33.12;42.26;100220.78;1087446;54;19967;-86
2023/08/20 11:14:13;;;;;;;;;;;;;;;33.24;41.89;100225.91;1087181;47;19943;-87
2023/08/20 11:16:24;;;;;;;;;;;;;;;33.19;42.60;100220.44;1081822;54;19950;31
2023/08/20 11:19:54;;;;;;;;;;;;;;;33.02;42.92;100220.88;1089053;39;20634;31
2023/08/20 11:22:18;;;;;;;;;;;;;;;33.10;43.00;100216.66;1079602;54;20826;31
2023/08/20 11:27:22;;;;;;;;;;;;;;;32.12;44.46;100215.41;1081169;54;19939;31
2023/08/20 11:28:44;;;;;;;;;;;;;;;31.98;44.52;100217.16;1077305;47;19946;31
2023/08/20 11:32:09;;;;;;;;;;;;;;;31.87;44.99;100210.88;1079601;47;19934;31
2023/08/20 11:34:43;;;;;;;;;;;;;;;32.01;44.74;100216.59;1078953;54;19958;-85
2023/08/20 11:35:47;;;;;;;;;;;;;;;31.84;44.93;100216.94;1079637;46;19986;-87
2023/08/20 11:44:58;;;;;;;;;;;;;;;31.76;45.17;100209.25;1081418;54;20362;-86
2023/08/20 11:49:06;;;;;;;;;;;;;;;31.98;45.02;100200.56;1087785;54;19943;-86
2023/08/20 11:50:13;;;;;;;;;;;;;;;32.14;44.89;100209.63;1087342;47;19923;-86
2023/08/20 11:51:17;;;;;;;;;;;;;;;32.23;44.39;100209.81;1087681;54;19950;-87
2023/08/20 11:52:20;;;;;;;;;;;;;;;32.29;44.48;100205.97;1087640;47;19938;-88
2023/08/20 11:53:25;;;;;;;;;;;;;;;32.32;44.26;100206.22;1087737;54;19979;-87
2023/08/20 11:55:34;;;;;;;;;;;;;;;32.38;44.28;100214.47;1087294;54;20003;-87
2023/08/20 11:56:49;;;;;;;;;;;;;;;32.40;44.46;100204.78;1086070;47;19938;31
2023/08/20 11:57:53;;;;;;;;;;;;;;;32.36;44.02;100203.69;1087557;47;19939;-87
2023/08/20 12:01:24;;;;;;;;;;;;;;;32.55;43.87;100205.75;1087762;54;19939;-87
2023/08/20 12:02:27;;;;;;;;;;;;;;;32.60;43.37;100205.72;1087617;47;19963;-89
2023/08/20 12:04:40;;;;;;;;;;;;;;;32.21;44.17;100199.88;1083979;54;20166;31
2023/08/20 12:26:16;;;;;;;;;;;;;;;32.31;40.98;100187.97;1077587;54;19943;-85
2023/08/20 12:27:28;;;;;;;;;;;;;;;32.53;40.35;100189.47;1080910;47;19947;31
2023/08/20 12:30:35;;;;;;;;;;;;;;;32.53;40.64;100185.84;1087333;54;19938;-86
2023/08/20 12:32:59;;;;;;;;;;;;;;;32.61;40.11;100188.00;1077845;54;19946;31
2023/08/20 12:34:23;;;;;;;;;;;;;;;32.77;39.64;100183.16;1087403;47;20022;-85
2023/08/20 12:36:34;;;;;;;;;;;;;;;32.63;39.43;100183.00;1080143;54;20001;-86
2023/08/20 12:37:38;;;;;;;;;;;;;;;32.62;39.83;100173.06;1080110;47;19947;-86
2023/08/20 12:39:53;;;;;;;;;;;;;;;32.65;39.33;100169.72;1079972;54;19930;31
2023/08/20 12:41:01;;;;;;;;;;;;;;;32.78;39.80;100171.81;1087849;47;19946;-87
2023/08/20 12:43:15;;;;;;;;;;;;;;;32.62;40.41;100173.06;1094130;39;20804;-86
2023/08/20 12:44:17;;;;;;;;;;;;;;;32.75;40.93;100180.69;1087725;47;19946;-85
2023/08/20 12:45:24;;;;;;;;;;;;;;;32.79;40.34;100173.47;1087582;47;19939;-86
2023/08/20 12:46:44;;;;;;;;;;;;;;;32.82;40.25;100170.16;1087470;47;19942;-86
2023/08/20 12:47:54;;;;;;;;;;;;;;;32.97;40.35;100176.63;1087866;54;19990;-87
2023/08/20 12:48:57;;;;;;;;;;;;;;;33.06;40.00;100174.91;1088009;54;19955;-86
2023/08/20 12:52:29;;;;;;;;;;;;;;;33.15;40.47;100171.50;1087767;47;19943;-85
2023/08/20 12:53:30;;;;;;;;;;;;;;;33.16;40.41;100162.06;1087951;46;19939;-87
2023/08/20 12:54:34;;;;;;;;;;;;;;;33.12;40.24;100162.66;1088015;46;19947;-86
2023/08/20 12:55:35;;;;;;;;;;;;;;;33.04;40.55;100167.97;1087801;46;21135;-86
2023/08/20 12:56:38;;;;;;;;;;;;;;;32.89;40.34;100163.44;1087786;47;19963;-87
2023/08/20 12:57:52;;;;;;;;;;;;;;;32.84;40.49;100157.97;1087858;54;19966;-86
2023/08/20 12:58:57;;;;;;;;;;;;;;;32.78;40.60;100157.16;1088882;39;21087;-85
2023/08/20 13:00:07;;;;;;;;;;;;;;;32.82;40.89;100156.31;1087726;46;19938;-86
2023/08/20 13:02:20;;;;;;;;;;;;;;;32.74;40.60;100158.84;1088472;54;19923;-84
2023/08/20 13:03:27;;;;;;;;;;;;;;;32.88;40.66;100156.25;1088263;54;19950;-86
2023/08/20 13:04:56;;;;;;;;;;;;;;;32.84;40.95;100155.19;1088967;31;20720;-85
2023/08/20 13:10:29;;;;;;;;;;;;;;;32.66;40.27;100143.72;1087667;47;19956;-86
2023/08/20 13:11:53;;;;;;;;;;;;;;;32.82;40.71;100153.53;1087567;54;19950;-87
2023/08/20 13:14:04;;;;;;;;;;;;;;;32.97;40.35;100141.50;1087884;54;19960;-88
2023/08/20 13:15:09;;;;;;;;;;;;;;;33.09;39.91;100141.06;1087647;47;19938;-86
2023/08/20 13:16:16;;;;;;;;;;;;;;;33.20;40.22;100140.97;1087564;47;19969;-88
2023/08/20 13:17:36;;;;;;;;;;;;;;;33.25;39.98;100140.91;1087632;47;19946;-85
2023/08/20 13:18:45;;;;;;;;;;;;;;;33.25;39.37;100147.28;1088696;39;21119;-87
2023/08/20 13:19:49;;;;;;;;;;;;;;;33.36;39.51;100142.44;1087499;47;20067;-84
2023/08/20 13:20:52;;;;;;;;;;;;;;;33.38;39.76;100143.00;1087448;47;19970;-87
2023/08/20 13:22:02;;;;;;;;;;;;;;;33.41;39.57;100145.19;1087679;47;19939;-87
2023/08/20 13:25:23;;;;;;;;;;;;;;;33.10;39.71;100137.19;1087263;39;20424;31
2023/08/20 13:30:26;;;;;;;;;;;;;;;32.99;39.38;100135.66;1086789;47;19939;-85
2023/08/20 13:43:07;;;;;;;;;;;;;;;33.75;37.74;100133.09;1087034;47;19945;-87
2023/08/20 13:44:09;;;;;;;;;;;;;;;33.66;38.03;100129.31;1087503;47;20002;-86
2023/08/20 13:45:25;;;;;;;;;;;;;;;33.64;38.26;100133.53;1087656;54;19949;-84
2023/08/20 13:50:05;;;;;;;;;;;;;;;33.67;37.43;100130.97;1087212;54;19943;-84
2023/08/20 13:51:47;;;;;;;;;;;;;;;33.73;37.06;100126.19;1087186;54;19938;-85
2023/08/20 13:57:00;;;;;;;;;;;;;;;33.76;37.53;100131.16;1087210;47;19938;-85
2023/08/20 13:58:27;;;;;;;;;;;;;;;33.85;37.29;100122.97;1087208;46;19963;-87
2023/08/20 14:04:23;;;;;;;;;;;;;;;33.80;36.56;100117.50;1090472;39;20979;-85
2023/08/20 14:06:57;;;;;;;;;;;;;;;33.86;36.72;100110.78;1077054;54;19946;31
2023/08/20 14:10:45;;;;;;;;;;;;;;;33.84;37.46;100116.63;1087379;54;22007;-85
2023/08/20 14:12:01;;;;;;;;;;;;;;;33.79;37.95;100118.63;1087100;46;19939;-85
2023/08/20 14:13:27;;;;;;;;;;;;;;;33.82;37.64;100115.28;1087331;54;20085;-84
2023/08/20 14:14:43;;;;;;;;;;;;;;;33.81;37.54;100114.44;1087694;47;19970;-85
2023/08/20 14:18:07;;;;;;;;;;;;;;;33.69;37.70;100105.72;1087742;47;19959;-88
2023/08/20 14:19:08;;;;;;;;;;;;;;;33.75;37.56;100104.56;1087398;47;19939;-86
2023/08/20 14:20:36;;;;;;;;;;;;;;;33.75;37.85;100119.22;1087272;47;20909;-85
2023/08/20 14:21:40;;;;;;;;;;;;;;;33.63;37.57;100110.53;1087573;46;19947;-85
2023/08/20 14:22:44;;;;;;;;;;;;;;;33.59;38.21;100109.47;1087391;47;19938;-86
2023/08/20 14:23:47;;;;;;;;;;;;;;;33.68;37.69;100109.63;1089423;39;20726;-87
2023/08/20 14:25:03;;;;;;;;;;;;;;;33.56;37.75;100112.84;1087827;46;19938;-84
2023/08/20 14:26:23;;;;;;;;;;;;;;;33.42;37.24;100116.34;1087440;54;19951;-85
2023/08/20 14:33:50;;;;;;;;;;;;;;;33.38;37.52;100109.75;1089267;39;21106;-86
2023/08/20 14:35:13;;;;;;;;;;;;;;;33.37;37.75;100113.63;1087096;54;19966;-85
2023/08/20 14:46:00;;;;;;;;;;;;;;;33.83;37.03;100098.34;1086743;54;19942;-86
2023/08/20 14:47:04;;;;;;;;;;;;;;;33.68;37.19;100095.78;1086053;47;19943;-84
2023/08/20 14:48:11;;;;;;;;;;;;;;;33.63;37.19;100104.16;1086155;47;20007;-86
2023/08/20 14:49:32;;;;;;;;;;;;;;;33.74;37.05;100098.16;1086679;54;20726;-86
2023/08/20 14:52:33;;;;;;;;;;;;;;;33.53;37.78;100102.38;1086904;54;19963;-88
2023/08/20 14:53:35;;;;;;;;;;;;;;;33.38;38.01;100097.88;1086739;47;19939;-86
2023/08/20 14:54:46;;;;;;;;;;;;;;;33.42;37.81;100099.75;1086773;47;19939;-86
2023/08/20 14:55:59;;;;;;;;;;;;;;;33.46;38.00;100102.72;1086784;47;19943;-84
2023/08/20 14:57:09;;;;;;;;;;;;;;;33.42;38.19;100093.34;1086805;47;19989;-85
2023/08/20 14:58:14;;;;;;;;;;;;;;;33.47;38.03;100096.06;1086868;54;19943;-85
2023/08/20 15:00:52;;;;;;;;;;;;;;;33.49;37.45;100093.81;1086564;47;20014;-85
2023/08/20 15:03:39;;;;;;;;;;;;;;;33.77;37.14;100087.63;1086820;47;19945;-86
2023/08/20 15:04:56;;;;;;;;;;;;;;;33.88;37.57;100089.97;1086757;54;19943;-85
2023/08/20 15:06:09;;;;;;;;;;;;;;;33.96;37.66;100088.47;1086800;54;19943;-87
2023/08/20 15:07:27;;;;;;;;;;;;;;;33.91;37.38;100083.00;1087890;39;20648;-84
2023/08/20 15:08:53;;;;;;;;;;;;;;;33.80;37.64;100089.81;1086856;47;19938;-84
2023/08/20 15:10:07;;;;;;;;;;;;;;;33.79;37.63;100090.91;1086632;47;19943;-83
2023/08/20 15:11:34;;;;;;;;;;;;;;;33.84;37.61;100088.06;1086752;47;19950;-83
2023/08/20 15:14:07;;;;;;;;;;;;;;;33.75;37.30;100085.97;1086861;47;19950;-84
2023/08/20 15:15:28;;;;;;;;;;;;;;;33.61;37.88;100090.63;1087062;46;19938;-86